createdAt,value
2022-11-24T00:01:28.179Z,100043.06
2022-11-24T00:04:01.790Z,100041.22
2022-11-24T00:06:31.743Z,100052.16
2022-11-24T00:09:00.497Z,100043.34
2022-11-24T00:11:30.899Z,100048.75
2022-11-24T00:14:00.119Z,100061.22
2022-11-24T00:16:31.204Z,100067.16
2022-11-24T00:19:05.125Z,100062.00
2022-11-24T00:21:37.759Z,100064.63
2022-11-24T00:24:10.696Z,100072.53
2022-11-24T00:26:38.707Z,100071.84
2022-11-24T00:29:08.291Z,100073.72
2022-11-24T00:31:38.800Z,100066.94
2022-11-24T00:34:14.896Z,100079.34
2022-11-24T00:36:43.316Z,100063.69
2022-11-24T00:39:16.029Z,100084.72
2022-11-24T00:41:44.709Z,100089.97
2022-11-24T00:44:13.032Z,100092.78
2022-11-24T00:46:41.139Z,100089.25
2022-11-24T00:49:09.735Z,100099.53
2022-11-24T00:51:39.135Z,100105.34
2022-11-24T00:54:10.225Z,100092.06
2022-11-24T00:56:38.560Z,100105.00
2022-11-24T00:59:09.730Z,100113.22
2022-11-24T01:01:37.838Z,100117.28
2022-11-24T01:04:06.310Z,100118.50
2022-11-24T01:06:36.088Z,100113.81
2022-11-24T01:09:04.772Z,100114.25
2022-11-24T01:11:55.265Z,100113.97
2022-11-24T01:14:25.175Z,100120.91
2022-11-24T01:16:56.066Z,100118.81
2022-11-24T01:19:24.654Z,100123.84
2022-11-24T01:21:52.729Z,100131.34
2022-11-24T01:24:23.892Z,100125.88
2022-11-24T01:26:51.866Z,100130.50
2022-11-24T01:29:20.155Z,100130.19
2022-11-24T01:31:48.359Z,100127.63
2022-11-24T01:34:19.504Z,100132.50
2022-11-24T01:36:47.902Z,100128.13
2022-11-24T01:39:15.934Z,100134.25
2022-11-24T01:41:43.908Z,100138.59
2022-11-24T01:44:27.464Z,100143.28
2022-11-24T01:47:03.330Z,100146.41
2022-11-24T01:49:31.731Z,100147.25
2022-11-24T01:52:06.976Z,100163.97
2022-11-24T01:54:53.825Z,100157.41
2022-11-24T01:57:24.336Z,100167.69
2022-11-24T01:59:59.874Z,100163.38
2022-11-24T02:02:31.780Z,100163.56
2022-11-24T02:05:10.000Z,100160.94
2022-11-24T02:07:38.814Z,100152.75
2022-11-24T02:10:13.961Z,100166.63
2022-11-24T02:12:46.807Z,100169.09
2022-11-24T02:15:35.853Z,100169.97
2022-11-24T02:18:04.477Z,100174.59
2022-11-24T02:20:32.691Z,100175.44
2022-11-24T02:23:15.073Z,100180.66
2022-11-24T02:25:49.387Z,100182.97
2022-11-24T02:28:21.285Z,100176.44
2022-11-24T02:30:54.711Z,100183.84
2022-11-24T02:33:23.152Z,100189.31
2022-11-24T02:35:52.544Z,100183.31
2022-11-24T02:38:31.733Z,100184.72
2022-11-24T02:41:04.306Z,100184.88
2022-11-24T02:43:39.648Z,100180.31
2022-11-24T02:46:08.718Z,100186.47
2022-11-24T02:48:37.395Z,100170.81
2022-11-24T02:51:05.864Z,100174.81
2022-11-24T02:53:34.238Z,100189.44
2022-11-24T02:56:02.196Z,100191.25
2022-11-24T02:58:30.147Z,100190.47
2022-11-24T03:01:00.100Z,100198.34
2022-11-24T03:03:28.481Z,100202.63
2022-11-24T03:05:56.387Z,100202.03
2022-11-24T03:08:24.629Z,100204.81
2022-11-24T03:10:52.469Z,100212.97
2022-11-24T03:13:20.323Z,100213.16
2022-11-24T03:15:49.059Z,100218.66
2022-11-24T03:18:17.107Z,100221.13
2022-11-24T03:20:47.877Z,100215.88
2022-11-24T03:23:16.026Z,100211.91
2022-11-24T03:25:43.878Z,100211.03
2022-11-24T03:28:11.767Z,100216.34
2022-11-24T03:30:39.968Z,100217.22
2022-11-24T03:33:08.086Z,100224.50
2022-11-24T03:35:36.026Z,100202.53
2022-11-24T03:38:04.368Z,100230.22
2022-11-24T03:40:35.327Z,100226.38
2022-11-24T03:43:03.162Z,100229.00
2022-11-24T03:45:49.569Z,100227.56
2022-11-24T03:48:19.125Z,100232.00
2022-11-24T03:50:59.011Z,100232.50
2022-11-24T03:53:31.981Z,100236.78
2022-11-24T03:56:00.751Z,100229.69
2022-11-24T03:58:29.304Z,100227.25
2022-11-24T04:00:58.325Z,100234.13
2022-11-24T04:03:27.130Z,100231.59
2022-11-24T04:05:55.055Z,100239.69
2022-11-24T04:08:23.002Z,100233.72
2022-11-24T04:10:53.840Z,100234.25
2022-11-24T04:13:24.182Z,100234.78
2022-11-24T04:15:52.724Z,100240.00
2022-11-24T04:18:21.132Z,100239.75
2022-11-24T04:20:55.224Z,100231.91
2022-11-24T04:23:23.401Z,100236.16
2022-11-24T04:25:51.198Z,100240.97
2022-11-24T04:28:19.107Z,100243.44
2022-11-24T04:30:47.407Z,100245.62
2022-11-24T04:33:15.779Z,100243.69
2022-11-24T04:35:46.413Z,100256.78
2022-11-24T04:39:24.751Z,100253.44
2022-11-24T04:41:03.734Z,100261.75
2022-11-24T04:43:37.694Z,100266.03
2022-11-24T04:46:11.559Z,100269.19
2022-11-24T04:48:43.109Z,100261.50
2022-11-24T04:51:15.636Z,100266.22
2022-11-24T04:53:43.693Z,100273.72
2022-11-24T04:56:11.576Z,100272.91
2022-11-24T04:58:39.514Z,100274.53
2022-11-24T05:01:08.849Z,100274.50
2022-11-24T05:03:40.550Z,100271.56
2022-11-24T05:06:09.337Z,100282.03
2022-11-24T05:08:37.178Z,100280.09
2022-11-24T05:11:07.426Z,100284.31
2022-11-24T05:13:35.670Z,100281.47
2022-11-24T05:16:06.891Z,100291.25
2022-11-24T05:18:38.455Z,100296.69
2022-11-24T05:21:06.406Z,100298.59
2022-11-24T05:23:34.254Z,100305.94
2022-11-24T05:26:06.088Z,100311.25
2022-11-24T05:28:33.832Z,100324.75
2022-11-24T05:31:03.730Z,100321.97
2022-11-24T05:33:33.730Z,100335.06
2022-11-24T05:36:06.597Z,100335.47
2022-11-24T05:38:35.943Z,100339.63
2022-11-24T05:41:07.032Z,100349.53
2022-11-24T05:43:35.426Z,100345.28
2022-11-24T05:46:03.436Z,100351.38
2022-11-24T05:48:31.221Z,100354.09
2022-11-24T05:50:59.651Z,100356.69
2022-11-24T05:53:27.647Z,100356.97
2022-11-24T05:55:55.558Z,100362.59
2022-11-24T05:58:23.745Z,100371.03
2022-11-24T06:00:51.953Z,100372.00
2022-11-24T06:03:20.111Z,100381.66
2022-11-24T06:05:48.093Z,100385.50
2022-11-24T06:08:16.487Z,100388.38
2022-11-24T06:10:44.581Z,100388.28
2022-11-24T06:13:12.561Z,100392.69
2022-11-24T06:15:41.250Z,100393.59
2022-11-24T06:18:09.318Z,100393.53
2022-11-24T06:20:37.257Z,100407.47
2022-11-24T06:23:04.976Z,100411.88
2022-11-24T06:25:35.986Z,100414.91
2022-11-24T06:28:05.372Z,100413.63
2022-11-24T06:30:33.643Z,100408.81
2022-11-24T06:33:01.711Z,100403.81
2022-11-24T06:35:29.530Z,100413.19
2022-11-24T06:37:57.593Z,100409.25
2022-11-24T06:40:25.493Z,100410.97
2022-11-24T06:42:53.382Z,100397.47
2022-11-24T06:45:21.544Z,100412.78
2022-11-24T06:47:49.476Z,100407.72
2022-11-24T06:50:17.371Z,100423.66
2022-11-24T06:52:45.586Z,100417.94
2022-11-24T06:55:13.441Z,100418.62
2022-11-24T06:57:41.242Z,100433.28
2022-11-24T07:00:09.944Z,100422.53
2022-11-24T07:02:42.532Z,100428.81
2022-11-24T07:05:16.878Z,100436.06
2022-11-24T07:07:44.758Z,100425.31
2022-11-24T07:10:13.082Z,100432.12
2022-11-24T07:12:43.826Z,100397.09
2022-11-24T07:15:14.815Z,100430.53
2022-11-24T07:17:47.358Z,100429.66
2022-11-24T07:20:15.213Z,100426.91
2022-11-24T07:22:43.452Z,100437.66
2022-11-24T07:25:11.319Z,100441.53
2022-11-24T07:27:40.313Z,100423.75
2022-11-24T07:30:11.873Z,100430.75
2022-11-24T07:32:39.702Z,100435.97
2022-11-24T07:35:07.948Z,100438.03
2022-11-24T07:37:36.165Z,100437.72
2022-11-24T07:40:04.487Z,100431.28
2022-11-24T07:42:32.428Z,100451.03
2022-11-24T07:45:00.629Z,100440.44
2022-11-24T07:47:28.600Z,100442.38
2022-11-24T07:49:59.576Z,100449.81
2022-11-24T07:52:27.786Z,100455.09
2022-11-24T07:54:55.582Z,100459.28
2022-11-24T07:57:24.309Z,100455.81
2022-11-24T07:59:53.571Z,100460.94
2022-11-24T08:02:21.344Z,100461.59
2022-11-24T08:04:49.586Z,100463.09
2022-11-24T08:07:17.506Z,100464.03
2022-11-24T08:09:45.260Z,100468.94
2022-11-24T08:12:13.409Z,100474.94
2022-11-24T08:14:41.259Z,100471.34
2022-11-24T08:17:09.210Z,100466.00
2022-11-24T08:19:37.507Z,100469.25
2022-11-24T08:22:05.346Z,100456.34
2022-11-24T08:24:33.255Z,100462.78
2022-11-24T08:27:01.831Z,100473.84
2022-11-24T08:29:31.222Z,100478.38
2022-11-24T08:31:59.377Z,100476.78
2022-11-24T08:34:27.730Z,100475.66
2022-11-24T08:36:55.475Z,100467.41
2022-11-24T08:39:23.532Z,100470.91
2022-11-24T08:41:51.954Z,100488.37
2022-11-24T08:44:19.700Z,100487.38
2022-11-24T08:46:47.535Z,100480.87
2022-11-24T08:49:16.269Z,100489.03
2022-11-24T08:51:43.951Z,100486.03
2022-11-24T08:54:13.819Z,100496.03
2022-11-24T08:56:42.724Z,100498.13
2022-11-24T08:59:14.192Z,100499.13
2022-11-24T09:01:42.505Z,100505.22
2022-11-24T09:04:10.382Z,100505.53
2022-11-24T09:06:38.209Z,100513.00
2022-11-24T09:09:06.266Z,100518.81
2022-11-24T09:11:34.643Z,100519.25
2022-11-24T09:14:02.495Z,100521.84
2022-11-24T09:16:30.742Z,100525.28
2022-11-24T09:19:03.454Z,100514.16
2022-11-24T09:21:34.679Z,100526.56
2022-11-24T09:24:02.633Z,100526.78
2022-11-24T09:26:32.899Z,100528.25
2022-11-24T09:29:03.127Z,100529.59
2022-11-24T09:31:36.249Z,100527.12
2022-11-24T09:34:07.459Z,100525.28
2022-11-24T09:36:38.511Z,100531.59
2022-11-24T09:39:06.818Z,100529.34
2022-11-24T09:41:52.510Z,100533.56
2022-11-24T09:44:26.466Z,100530.84
2022-11-24T09:47:00.636Z,100530.94
2022-11-24T09:49:49.844Z,100531.31
2022-11-24T09:52:48.789Z,100511.94
2022-11-24T09:55:35.292Z,100528.66
2022-11-24T09:58:24.906Z,100543.50
2022-11-24T10:00:57.541Z,100537.66
2022-11-24T10:03:38.006Z,100540.56
2022-11-24T10:06:38.634Z,100540.97
2022-11-24T10:09:27.909Z,100515.50
2022-11-24T10:12:27.845Z,100547.72
2022-11-24T10:15:22.798Z,100547.06
2022-11-24T10:18:17.409Z,100550.44
2022-11-24T10:24:40.317Z,100547.62
2022-11-24T10:27:18.587Z,100560.56
2022-11-24T10:29:51.473Z,100560.72
2022-11-24T10:42:01.499Z,100562.94
2022-11-24T10:44:29.731Z,100565.13
2022-11-24T10:46:58.019Z,100570.62
2022-11-24T10:49:29.835Z,100571.34
2022-11-24T10:52:03.658Z,100572.50
2022-11-24T10:54:31.863Z,100579.97
2022-11-24T10:57:03.539Z,100568.97
2022-11-24T10:59:35.393Z,100573.16
2022-11-24T11:02:26.817Z,100571.22
2022-11-24T11:04:54.770Z,100561.59
2022-11-24T11:07:26.555Z,100546.53
2022-11-24T11:10:21.220Z,100558.53
2022-11-24T11:12:50.138Z,100555.34
2022-11-24T11:15:29.145Z,100569.94
2022-11-24T11:18:01.461Z,100567.53
2022-11-24T11:20:34.667Z,100571.12
2022-11-24T11:23:17.187Z,100570.00
2022-11-24T11:25:44.968Z,100551.94
2022-11-24T11:28:29.900Z,100577.16
2022-11-24T11:31:20.696Z,100577.59
2022-11-24T11:34:04.125Z,100578.06
2022-11-24T11:36:33.495Z,100574.53
2022-11-24T11:39:05.089Z,100574.94
2022-11-24T11:41:45.200Z,100572.16
2022-11-24T11:44:22.807Z,100583.78
2022-11-24T11:46:50.535Z,100583.50
2022-11-24T11:49:18.664Z,100587.75
2022-11-24T11:55:32.402Z,100596.81
2022-11-24T11:58:18.046Z,100602.00
2022-11-24T12:00:52.216Z,100587.13
2022-11-24T12:04:16.025Z,100607.09
2022-11-24T12:07:09.406Z,100598.09
2022-11-24T12:09:54.348Z,100603.84
2022-11-24T12:12:49.025Z,100594.56
2022-11-24T12:15:32.181Z,100595.28
2022-11-24T12:18:33.109Z,100606.72
2022-11-24T12:21:25.949Z,100617.41
2022-11-24T12:24:21.763Z,100614.38
2022-11-24T12:27:04.522Z,100623.56
2022-11-24T12:29:41.237Z,100623.44
2022-11-24T12:32:31.121Z,100633.34
2022-11-24T12:35:17.131Z,100634.91
2022-11-24T12:38:03.321Z,100635.84
2022-11-24T12:40:49.502Z,100643.84
2022-11-24T12:43:40.005Z,100636.09
2022-11-24T12:46:17.307Z,100640.97
2022-11-24T12:49:13.020Z,100643.59
2022-11-24T12:51:45.032Z,100650.37
2022-11-24T12:54:19.915Z,100653.91
2022-11-24T12:56:47.500Z,100655.34
2022-11-24T12:59:52.348Z,100655.84
2022-11-24T13:02:34.871Z,100652.34
2022-11-24T13:05:13.631Z,100640.13
2022-11-24T13:07:56.131Z,100646.28
2022-11-24T13:10:40.454Z,100647.59
2022-11-24T13:13:13.720Z,100645.75
2022-11-24T13:19:07.564Z,100643.84
2022-11-24T13:21:41.701Z,100628.94
2022-11-24T13:24:19.720Z,100639.66
2022-11-24T13:26:54.590Z,100639.75
2022-11-24T13:32:14.841Z,100653.63
2022-11-24T13:34:50.142Z,100677.44
2022-11-24T13:37:31.168Z,100673.06
2022-11-24T13:40:23.236Z,100676.72
2022-11-24T13:43:03.302Z,100675.16
2022-11-24T13:45:40.834Z,100681.97
2022-11-24T13:48:29.432Z,100688.63
2022-11-24T13:50:57.285Z,100692.56
2022-11-24T13:53:42.015Z,100697.97
2022-11-24T13:56:12.712Z,100700.22
2022-11-24T13:58:46.751Z,100701.84
2022-11-24T14:01:17.433Z,100706.03
2022-11-24T14:07:09.721Z,100712.03
2022-11-24T14:09:48.399Z,100701.31
2022-11-24T14:12:31.698Z,100703.09
2022-11-24T14:15:25.268Z,100711.97
2022-11-24T14:17:53.192Z,100706.81
2022-11-24T14:20:27.244Z,100703.22
2022-11-24T14:22:55.330Z,100713.72
2022-11-24T14:25:31.014Z,100713.53
2022-11-24T14:28:00.771Z,100713.34
2022-11-24T14:30:29.283Z,100725.66
2022-11-24T14:33:02.049Z,100730.56
2022-11-24T14:35:34.730Z,100732.31
2022-11-24T14:38:06.590Z,100745.66
2022-11-24T14:40:50.222Z,100740.91
2022-11-24T14:43:30.766Z,100745.87
2022-11-24T14:46:09.620Z,100754.78
2022-11-24T14:48:39.716Z,100755.78
2022-11-24T14:51:11.034Z,100760.59
2022-11-24T14:53:54.096Z,100753.56
2022-11-24T14:56:29.044Z,100749.00
2022-11-24T14:58:58.414Z,100751.38
2022-11-24T15:01:32.982Z,100744.31
2022-11-24T15:04:46.186Z,100757.72
2022-11-24T15:07:19.197Z,100759.09
2022-11-24T15:09:58.351Z,100756.38
2022-11-24T15:12:29.238Z,100765.13
2022-11-24T15:15:22.730Z,100763.47
2022-11-24T15:17:58.010Z,100770.38
2022-11-24T15:20:28.720Z,100773.72
2022-11-24T15:23:25.074Z,100768.28
2022-11-24T15:25:55.018Z,100775.38
2022-11-24T15:28:27.305Z,100779.69
2022-11-24T15:30:57.314Z,100778.84
2022-11-24T15:33:25.880Z,100772.84
2022-11-24T15:35:54.371Z,100762.37
2022-11-24T15:38:23.271Z,100762.66
2022-11-24T15:40:58.256Z,100776.03
2022-11-24T15:43:25.960Z,100778.97
2022-11-24T15:45:54.294Z,100779.84
2022-11-24T15:48:22.352Z,100779.78
2022-11-24T15:50:51.124Z,100779.72
2022-11-24T15:53:26.244Z,100788.38
2022-11-24T15:55:57.725Z,100784.88
2022-11-24T15:58:26.165Z,100788.34
2022-11-24T16:00:54.264Z,100790.09
2022-11-24T16:06:19.053Z,100790.69
2022-11-24T16:08:52.124Z,100795.16
2022-11-24T16:11:20.045Z,100800.31
2022-11-24T16:13:52.267Z,100798.63
2022-11-24T16:16:23.426Z,100786.59
2022-11-24T16:18:51.569Z,100798.84
2022-11-24T16:21:20.385Z,100802.81
2022-11-24T16:23:48.967Z,100798.53
2022-11-24T16:26:16.829Z,100795.12
2022-11-24T16:28:46.096Z,100781.16
2022-11-24T16:31:16.478Z,100791.28
2022-11-24T16:33:46.645Z,100797.47
2022-11-24T16:36:14.990Z,100798.41
2022-11-24T16:38:42.891Z,100794.84
2022-11-24T16:41:10.901Z,100789.56
2022-11-24T16:43:39.405Z,100790.38
2022-11-24T16:46:21.356Z,100801.44
2022-11-24T16:48:52.186Z,100798.66
2022-11-24T16:51:21.938Z,100802.28
2022-11-24T16:54:01.820Z,100813.56
2022-11-24T16:56:30.672Z,100811.69
2022-11-24T16:58:58.891Z,100812.09
2022-11-24T17:01:26.816Z,100812.63
2022-11-24T17:03:54.648Z,100800.72
2022-11-24T17:06:27.228Z,100813.41
2022-11-24T17:08:55.907Z,100813.53
2022-11-24T17:11:26.285Z,100815.56
2022-11-24T17:13:56.065Z,100810.44
2022-11-24T17:16:26.370Z,100819.94
2022-11-24T17:18:54.656Z,100819.94
2022-11-24T17:21:27.817Z,100823.31
2022-11-24T17:23:57.022Z,100825.09
2022-11-24T17:26:25.613Z,100824.22
2022-11-24T17:28:56.616Z,100829.38
2022-11-24T17:31:27.982Z,100826.81
2022-11-24T17:33:57.871Z,100828.50
2022-11-24T17:36:27.724Z,100825.97
2022-11-24T17:38:55.703Z,100828.53
2022-11-24T17:41:23.625Z,100827.66
2022-11-24T17:43:57.325Z,100831.06
2022-11-24T17:46:26.774Z,100831.06
2022-11-24T17:48:55.697Z,100832.78
2022-11-24T17:51:25.298Z,100831.03
2022-11-24T17:53:54.374Z,100836.19
2022-11-24T17:56:24.600Z,100833.59
2022-11-24T17:59:00.165Z,100840.47
2022-11-24T18:01:30.409Z,100836.19
2022-11-24T18:03:59.338Z,100833.66
2022-11-24T18:06:29.057Z,100847.34
2022-11-24T18:08:58.183Z,100855.84
2022-11-24T18:11:31.837Z,100850.75
2022-11-24T18:14:02.889Z,100858.44
2022-11-24T18:16:35.137Z,100856.69
2022-11-24T18:19:09.317Z,100866.97
2022-11-24T18:21:44.966Z,100865.28
2022-11-24T18:24:14.193Z,100869.53
2022-11-24T18:26:43.065Z,100862.69
2022-11-24T18:29:11.987Z,100870.25
2022-11-24T18:31:40.297Z,100873.75
2022-11-24T18:34:09.052Z,100870.34
2022-11-24T18:36:37.021Z,100867.78
2022-11-24T18:39:06.861Z,100868.69
2022-11-24T18:41:35.962Z,100870.38
2022-11-24T18:44:08.120Z,100870.38
2022-11-24T18:46:37.264Z,100864.37
2022-11-24T18:49:05.695Z,100871.25
2022-11-24T18:51:34.025Z,100858.41
2022-11-24T18:54:04.256Z,100866.12
2022-11-24T18:56:32.101Z,100861.75
2022-11-24T18:58:59.889Z,100872.91
2022-11-24T19:01:29.713Z,100875.50
2022-11-24T19:04:02.357Z,100878.06
2022-11-24T19:06:35.736Z,100877.22
2022-11-24T19:09:05.348Z,100884.91
2022-11-24T19:11:37.391Z,100882.16
2022-11-24T19:14:07.669Z,100881.37
2022-11-24T19:16:36.654Z,100884.78
2022-11-24T19:19:04.986Z,100888.31
2022-11-24T19:21:35.035Z,100888.31
2022-11-24T19:24:05.662Z,100884.06
2022-11-24T19:26:37.449Z,100888.19
2022-11-24T19:29:07.029Z,100876.63
2022-11-24T19:31:35.312Z,100883.84
2022-11-24T19:34:03.857Z,100888.31
2022-11-24T19:36:32.329Z,100867.84
2022-11-24T19:39:00.329Z,100900.28
2022-11-24T19:41:30.581Z,100897.72
2022-11-24T19:43:59.539Z,100901.13
2022-11-24T19:46:29.935Z,100893.47
2022-11-24T19:49:02.657Z,100890.25
2022-11-24T19:51:33.253Z,100899.44
2022-11-24T19:54:02.225Z,100901.16
2022-11-24T19:56:34.259Z,100894.25
2022-11-24T19:59:04.383Z,100893.84
2022-11-24T20:01:35.193Z,100896.69
2022-11-24T20:04:07.715Z,100889.19
2022-11-24T20:06:37.891Z,100894.28
2022-11-24T20:09:08.828Z,100896.91
2022-11-24T20:11:37.272Z,100891.78
2022-11-24T20:14:06.427Z,100897.72
2022-11-24T20:16:35.716Z,100896.88
2022-11-24T20:19:14.968Z,100895.16
2022-11-24T20:21:46.703Z,100907.16
2022-11-24T20:24:19.521Z,100903.72
2022-11-24T20:26:53.472Z,100902.88
2022-11-24T20:29:21.719Z,100901.16
2022-11-24T20:31:53.074Z,100905.44
2022-11-24T20:34:22.057Z,100901.19
2022-11-24T20:36:50.260Z,100907.16
2022-11-24T20:39:25.573Z,100909.69
2022-11-24T20:41:55.195Z,100910.56
2022-11-24T20:44:25.176Z,100919.06
2022-11-24T20:46:55.937Z,100918.25
2022-11-24T20:49:23.927Z,100910.41
2022-11-24T20:51:54.720Z,100908.84
2022-11-24T20:54:23.305Z,100907.16
2022-11-24T20:56:51.101Z,100926.62
2022-11-24T20:59:22.128Z,100924.25
2022-11-24T21:01:51.757Z,100923.38
2022-11-24T21:04:22.918Z,100919.97
2022-11-24T21:06:51.422Z,100928.44
2022-11-24T21:09:19.905Z,100937.06
2022-11-24T21:11:48.227Z,100936.16
2022-11-24T21:14:17.329Z,100926.50
2022-11-24T21:16:45.703Z,100942.03
2022-11-24T21:19:19.090Z,100942.13
2022-11-24T21:21:54.577Z,100953.31
2022-11-24T21:24:24.924Z,100952.44
2022-11-24T21:26:54.145Z,100951.59
2022-11-24T21:29:26.237Z,100949.00
2022-11-24T21:31:56.454Z,100957.41
2022-11-24T21:34:24.461Z,100960.16
2022-11-24T21:36:52.181Z,100937.94
2022-11-24T21:39:20.471Z,100962.72
2022-11-24T21:41:48.452Z,100960.13
2022-11-24T21:44:16.508Z,100955.00
2022-11-24T21:46:52.725Z,100955.81
2022-11-24T21:49:23.983Z,100969.56
2022-11-24T21:51:56.433Z,100973.00
2022-11-24T21:54:24.571Z,100969.59
2022-11-24T21:56:54.049Z,100972.09
2022-11-24T21:59:22.663Z,100972.87
2022-11-24T22:01:50.580Z,100972.09
2022-11-24T22:04:18.817Z,100967.78
2022-11-24T22:06:46.706Z,100979.84
2022-11-24T22:09:18.005Z,100973.00
2022-11-24T22:11:49.540Z,100972.13
2022-11-24T22:14:17.436Z,100974.50
2022-11-24T22:16:48.243Z,100961.88
2022-11-24T22:19:16.460Z,100974.69
2022-11-24T22:21:44.357Z,100980.47
2022-11-24T22:24:15.352Z,100978.44
2022-11-24T22:26:43.608Z,100988.28
2022-11-24T22:29:11.381Z,100981.97
2022-11-24T22:31:39.257Z,100990.06
2022-11-24T22:34:07.605Z,100972.97
2022-11-24T22:36:36.987Z,100979.84
2022-11-24T22:39:06.079Z,100979.84
2022-11-24T22:41:35.690Z,100979.81
2022-11-24T22:44:04.391Z,100990.91
2022-11-24T22:46:32.621Z,100987.47
2022-11-24T22:49:02.115Z,100976.41
2022-11-24T22:51:32.800Z,100983.19
2022-11-24T22:54:03.062Z,100985.81
2022-11-24T22:56:33.940Z,100988.34
2022-11-24T22:59:03.489Z,100994.88
2022-11-24T23:01:33.909Z,100991.66
2022-11-24T23:04:02.742Z,100991.78
2022-11-24T23:06:32.386Z,100995.91
2022-11-24T23:09:01.501Z,100995.22
2022-11-24T23:11:37.460Z,100996.84
2022-11-24T23:14:14.705Z,101005.38
2022-11-24T23:16:43.879Z,101003.78
2022-11-24T23:19:11.758Z,101005.50
2022-11-24T23:21:40.015Z,101001.22
2022-11-24T23:24:09.130Z,100998.66
2022-11-24T23:26:39.614Z,101002.06
2022-11-24T23:29:07.927Z,101007.22
2022-11-24T23:31:36.734Z,101020.00
2022-11-24T23:34:04.719Z,101018.28
2022-11-24T23:36:33.398Z,101019.13
2022-11-24T23:39:07.418Z,101020.00
2022-11-24T23:41:35.483Z,101021.72
2022-11-24T23:44:04.395Z,101020.88
2022-11-24T23:46:35.405Z,101017.47
2022-11-24T23:49:04.026Z,101021.72
2022-11-24T23:51:33.598Z,101031.97
2022-11-24T23:56:50.190Z,101027.69
2022-11-24T23:59:19.211Z,101028.53
